createdAt,value
2019-04-01T00:02:16.324Z,23.00
2019-04-01T00:04:44.728Z,23.57
2019-04-01T00:07:13.206Z,23.47
2019-04-01T00:09:41.612Z,23.27
2019-04-01T00:12:10.030Z,23.77
2019-04-01T00:14:38.433Z,25.03
2019-04-01T00:17:06.844Z,24.37
2019-04-01T00:19:35.249Z,24.07
2019-04-01T00:22:03.657Z,23.40
2019-04-01T00:24:32.064Z,24.67
2019-04-01T00:27:00.535Z,25.50
2019-04-01T00:29:28.945Z,25.97
2019-04-01T00:31:57.357Z,25.33
2019-04-01T00:34:25.779Z,25.43
2019-04-01T00:36:54.191Z,25.17
2019-04-01T00:39:22.606Z,24.77
2019-04-01T00:41:52.649Z,26.23
2019-04-01T00:44:21.065Z,25.10
2019-04-01T00:46:49.473Z,25.83
2019-04-01T00:49:17.887Z,24.97
2019-04-01T00:51:46.290Z,25.83
2019-04-01T00:54:14.725Z,24.93
2019-04-01T00:56:43.122Z,26.73
2019-04-01T00:59:11.533Z,24.23
2019-04-01T01:01:39.939Z,24.73
2019-04-01T01:04:08.342Z,25.13
2019-04-01T01:06:37.055Z,24.40
2019-04-01T01:09:06.633Z,26.07
2019-04-01T01:11:35.042Z,26.27
2019-04-01T01:14:03.515Z,25.97
2019-04-01T01:16:31.916Z,24.23
2019-04-01T01:19:00.321Z,25.07
2019-04-01T01:21:28.729Z,25.23
2019-04-01T01:23:57.138Z,24.77
2019-04-01T01:26:25.548Z,24.93
2019-04-01T01:28:53.979Z,24.40
2019-04-01T01:31:22.389Z,24.20
2019-04-01T01:33:50.798Z,22.90
2019-04-01T01:36:19.209Z,24.33
2019-04-01T01:38:47.697Z,23.40
2019-04-01T01:41:16.373Z,24.93
2019-04-01T01:43:44.777Z,23.00
2019-04-01T01:46:13.185Z,24.53
2019-04-01T01:48:41.590Z,22.97
2019-04-01T01:51:10.004Z,22.17
2019-04-01T01:53:41.511Z,22.03
2019-04-01T01:56:08.528Z,22.23
2019-04-01T01:58:36.935Z,22.70
2019-04-01T02:01:05.337Z,22.23
2019-04-01T02:03:33.737Z,21.30
2019-04-01T02:06:02.136Z,20.87
2019-04-01T02:08:30.548Z,21.37
2019-04-01T02:10:58.981Z,21.60
2019-04-01T02:13:27.387Z,21.17
2019-04-01T02:15:55.808Z,20.50
2019-04-01T02:18:24.198Z,21.17
2019-04-01T02:20:52.601Z,21.23
2019-04-01T02:23:21.007Z,20.63
2019-04-01T02:25:49.413Z,20.50
2019-04-01T02:28:17.818Z,21.47
2019-04-01T02:30:46.229Z,19.47
2019-04-01T02:33:14.638Z,20.77
2019-04-01T02:35:43.178Z,19.40
2019-04-01T02:38:11.637Z,18.07
2019-04-01T02:40:40.048Z,19.23
2019-04-01T02:43:08.441Z,18.57
2019-04-01T02:45:36.844Z,18.00
2019-04-01T02:48:05.252Z,17.70
2019-04-01T02:50:33.829Z,16.73
2019-04-01T02:53:02.315Z,17.90
2019-04-01T02:55:30.736Z,18.03
2019-04-01T02:57:59.145Z,17.70
2019-04-01T03:00:27.832Z,17.47
2019-04-01T03:02:56.243Z,17.17
2019-04-01T03:05:24.662Z,16.70
2019-04-01T03:07:53.074Z,18.23
2019-04-01T03:10:21.488Z,17.97
2019-04-01T03:12:49.890Z,15.90
2019-04-01T03:15:18.323Z,17.90
2019-04-01T03:17:46.708Z,16.37
2019-04-01T03:20:15.116Z,16.20
2019-04-01T03:22:43.529Z,17.83
2019-04-01T03:25:11.933Z,16.43
2019-04-01T03:27:40.342Z,16.67
2019-04-01T03:30:08.743Z,17.00
2019-04-01T03:32:44.201Z,16.40
2019-04-01T03:35:07.404Z,16.23
2019-04-01T03:37:35.864Z,16.10
2019-04-01T03:40:06.013Z,16.30
2019-04-01T03:42:34.434Z,16.87
2019-04-01T03:45:02.956Z,15.83
2019-04-01T03:47:31.365Z,15.80
2019-04-01T03:49:59.766Z,16.70
2019-04-01T03:52:28.174Z,15.57
2019-04-01T03:54:56.579Z,16.33
2019-04-01T03:57:25.000Z,15.43
2019-04-01T03:59:53.412Z,16.23
2019-04-01T04:02:21.824Z,15.83
2019-04-01T04:04:50.257Z,14.77
2019-04-01T04:07:18.693Z,14.90
2019-04-01T04:09:47.094Z,16.60
2019-04-01T04:12:15.509Z,15.63
2019-04-01T04:14:43.932Z,15.17
2019-04-01T04:17:12.324Z,15.40
2019-04-01T04:19:40.725Z,16.60
2019-04-01T04:22:09.138Z,15.20
2019-04-01T04:24:38.027Z,15.57
2019-04-01T04:27:10.884Z,14.97
2019-04-01T04:29:36.855Z,15.20
2019-04-01T04:32:05.290Z,15.10
2019-04-01T04:34:34.005Z,14.80
2019-04-01T04:37:02.678Z,14.93
2019-04-01T04:39:31.288Z,13.77
2019-04-01T04:41:59.742Z,14.60
2019-04-01T04:44:28.425Z,13.13
2019-04-01T04:46:57.106Z,14.33
2019-04-01T04:49:25.542Z,14.17
2019-04-01T04:51:54.017Z,14.00
2019-04-01T04:54:22.585Z,14.37
2019-04-01T04:56:51.076Z,14.23
2019-04-01T04:59:19.525Z,14.23
2019-04-01T05:01:47.942Z,14.03
2019-04-01T05:04:16.382Z,14.30
2019-04-01T05:06:44.878Z,14.63
2019-04-01T05:09:13.276Z,15.80
2019-04-01T05:11:41.691Z,14.40
2019-04-01T05:14:10.095Z,14.67
2019-04-01T05:16:38.503Z,15.27
2019-04-01T05:19:06.906Z,15.73
2019-04-01T05:21:36.453Z,16.23
2019-04-01T05:24:04.857Z,14.60
2019-04-01T05:26:36.272Z,14.40
2019-04-01T05:29:05.493Z,14.87
2019-04-01T05:31:35.150Z,14.43
2019-04-01T05:34:03.929Z,14.43
2019-04-01T05:36:32.784Z,14.37
2019-04-01T05:39:01.263Z,13.83
2019-04-01T05:41:29.845Z,14.00
2019-04-01T05:44:02.131Z,22.17
2019-04-01T05:46:29.261Z,20.33
2019-04-01T05:48:57.671Z,19.07
2019-04-01T05:51:26.073Z,19.60
2019-04-01T05:53:54.481Z,18.90
2019-04-01T05:56:23.154Z,15.87
2019-04-01T05:58:51.625Z,16.07
2019-04-01T06:01:27.278Z,15.17
2019-04-01T06:03:55.687Z,15.00
2019-04-01T06:06:24.386Z,22.87
2019-04-01T06:08:53.593Z,23.03
2019-04-01T06:11:21.998Z,16.60
2019-04-01T06:13:50.406Z,15.50
2019-04-01T06:16:18.809Z,14.97
2019-04-01T06:18:47.384Z,14.00
2019-04-01T06:21:15.861Z,13.23
2019-04-01T06:23:44.272Z,14.80
2019-04-01T06:26:12.835Z,13.57
2019-04-01T06:28:41.241Z,13.63
2019-04-01T06:31:09.649Z,12.83
2019-04-01T06:33:38.130Z,11.60
2019-04-01T06:36:06.538Z,11.10
2019-04-01T06:38:35.045Z,10.10
2019-04-01T06:41:03.525Z,10.63
2019-04-01T06:43:31.930Z,9.77
2019-04-01T06:46:00.515Z,9.43
2019-04-01T06:48:28.914Z,10.47
2019-04-01T06:50:57.309Z,10.07
2019-04-01T06:53:26.020Z,9.40
2019-04-01T06:55:54.418Z,9.03
2019-04-01T06:58:22.832Z,9.13
2019-04-01T07:00:51.802Z,10.13
2019-04-01T07:03:20.216Z,9.40
2019-04-01T07:05:49.150Z,10.57
2019-04-01T07:08:17.600Z,10.17
2019-04-01T07:10:45.982Z,9.60
2019-04-01T07:13:14.481Z,9.47
2019-04-01T07:15:42.887Z,10.43
2019-04-01T07:18:11.302Z,10.07
2019-04-01T07:20:40.049Z,10.17
2019-04-01T07:23:08.737Z,13.97
2019-04-01T07:25:37.142Z,25.80
2019-04-01T07:28:05.559Z,20.43
2019-04-01T07:30:33.957Z,15.70
2019-04-01T07:33:02.379Z,17.23
2019-04-01T07:35:30.785Z,13.80
2019-04-01T07:37:59.273Z,15.93
2019-04-01T07:40:27.747Z,20.90
2019-04-01T07:42:56.241Z,11.20
2019-04-01T07:45:24.655Z,10.30
2019-04-01T07:47:53.315Z,13.73
2019-04-01T07:50:21.726Z,13.83
2019-04-01T07:52:50.139Z,17.87
2019-04-01T07:55:18.549Z,15.48
2019-04-01T07:57:47.014Z,8.83
2019-04-01T08:00:15.597Z,10.50
2019-04-01T08:02:44.005Z,17.37
2019-04-01T08:05:12.419Z,13.03
2019-04-01T08:07:40.834Z,13.10
2019-04-01T08:10:10.365Z,21.35
2019-04-01T08:12:38.777Z,16.73
2019-04-01T08:15:07.938Z,15.05
2019-04-01T08:17:36.490Z,15.00
2019-04-01T08:20:05.741Z,11.60
2019-04-01T08:22:34.186Z,20.37
2019-04-01T08:25:03.285Z,11.80
2019-04-01T08:27:31.704Z,18.17
2019-04-01T08:30:00.396Z,15.45
2019-04-01T08:32:28.903Z,10.38
2019-04-01T08:34:57.327Z,10.45
2019-04-01T08:37:25.807Z,11.55
2019-04-01T08:39:54.330Z,11.75
2019-04-01T08:42:23.117Z,10.58
2019-04-01T08:44:51.530Z,10.78
2019-04-01T08:47:19.937Z,11.03
2019-04-01T08:49:48.357Z,10.30
2019-04-01T08:52:16.778Z,10.75
2019-04-01T08:54:45.185Z,11.28
2019-04-01T08:57:13.601Z,11.40
2019-04-01T08:59:42.030Z,11.50
2019-04-01T09:02:17.650Z,10.80
2019-04-01T09:04:40.581Z,10.58
2019-04-01T09:07:08.989Z,12.85
2019-04-01T09:09:38.050Z,12.85
2019-04-01T09:12:06.467Z,12.33
2019-04-01T09:14:35.933Z,13.10
2019-04-01T09:17:04.513Z,11.68
2019-04-01T09:19:32.951Z,11.38
2019-04-01T09:22:01.402Z,11.73
2019-04-01T09:24:29.816Z,12.85
2019-04-01T09:26:58.234Z,12.45
2019-04-01T09:29:26.653Z,11.63
2019-04-01T09:31:55.061Z,11.85
2019-04-01T09:34:23.502Z,11.97
2019-04-01T09:36:51.916Z,11.65
2019-04-01T09:39:20.346Z,11.63
2019-04-01T09:41:48.778Z,11.12
2019-04-01T09:44:17.183Z,13.10
2019-04-01T09:46:48.823Z,11.90
2019-04-01T09:49:15.738Z,12.40
2019-04-01T09:51:48.779Z,12.75
2019-04-01T09:54:14.309Z,11.63
2019-04-01T09:56:42.717Z,11.97
2019-04-01T09:59:11.214Z,11.38
2019-04-01T10:01:39.623Z,11.48
2019-04-01T10:04:08.049Z,11.95
2019-04-01T10:06:36.457Z,12.80
2019-04-01T10:09:07.625Z,13.78
2019-04-01T10:11:36.100Z,13.45
2019-04-01T10:14:04.856Z,13.58
2019-04-01T10:16:33.298Z,12.20
2019-04-01T10:19:01.706Z,12.15
2019-04-01T10:21:30.121Z,13.75
2019-04-01T10:23:58.634Z,13.03
2019-04-01T10:26:27.221Z,12.58
2019-04-01T10:28:55.629Z,12.98
2019-04-01T10:31:24.050Z,12.60
2019-04-01T10:33:52.466Z,13.32
2019-04-01T10:36:20.914Z,13.85
2019-04-01T10:38:49.297Z,14.15
2019-04-01T10:41:17.886Z,13.93
2019-04-01T10:43:46.305Z,13.20
2019-04-01T10:46:14.975Z,13.50
2019-04-01T10:48:43.826Z,14.33
2019-04-01T10:51:12.341Z,14.78
2019-04-01T10:53:40.841Z,15.32
2019-04-01T10:56:09.407Z,15.00
2019-04-01T10:58:37.894Z,14.45
2019-04-01T11:01:06.629Z,15.10
2019-04-01T11:03:35.241Z,14.20
2019-04-01T11:06:03.776Z,13.75
2019-04-01T11:08:32.245Z,13.60
2019-04-01T11:11:00.646Z,14.47
2019-04-01T11:13:29.053Z,16.00
2019-04-01T11:15:57.485Z,15.78
2019-04-01T11:18:25.898Z,16.50
2019-04-01T11:20:56.869Z,16.37
2019-04-01T11:23:24.599Z,14.83
2019-04-01T11:25:53.034Z,15.88
2019-04-01T11:28:21.507Z,14.65
2019-04-01T11:30:49.960Z,14.87
2019-04-01T11:33:18.386Z,15.63
2019-04-01T11:35:47.861Z,17.05
2019-04-01T11:38:16.483Z,16.37
2019-04-01T11:40:44.991Z,15.15
2019-04-01T11:43:13.464Z,16.90
2019-04-01T11:45:42.115Z,16.10
2019-04-01T11:48:10.612Z,16.42
2019-04-01T11:50:39.084Z,15.95
2019-04-01T11:53:07.492Z,16.63
2019-04-01T11:55:35.903Z,16.80
2019-04-01T11:58:04.310Z,17.62
2019-04-01T12:00:33.058Z,15.05
2019-04-01T12:03:01.942Z,16.90
2019-04-01T12:05:30.363Z,16.60
2019-04-01T12:07:58.798Z,16.10
2019-04-01T12:10:27.293Z,16.15
2019-04-01T12:12:55.753Z,16.52
2019-04-01T12:15:24.201Z,16.90
2019-04-01T12:17:52.609Z,15.98
2019-04-01T12:20:21.055Z,15.63
2019-04-01T12:22:49.465Z,15.93
2019-04-01T12:25:17.961Z,17.87
2019-04-01T12:27:46.387Z,17.00
2019-04-01T12:30:15.392Z,17.07
2019-04-01T12:32:44.298Z,17.23
2019-04-01T12:35:12.948Z,15.03
2019-04-01T12:37:41.532Z,16.77
2019-04-01T12:40:10.290Z,15.30
2019-04-01T12:42:38.697Z,14.70
2019-04-01T12:45:07.657Z,16.67
2019-04-01T12:47:36.138Z,16.87
2019-04-01T12:50:05.001Z,16.35
2019-04-01T12:52:33.410Z,15.58
2019-04-01T12:55:01.968Z,17.20
2019-04-01T12:57:30.450Z,15.15
2019-04-01T13:00:02.664Z,15.75
2019-04-01T13:02:31.092Z,15.80
2019-04-01T13:04:59.559Z,15.65
2019-04-01T13:07:27.965Z,14.65
2019-04-01T13:09:56.400Z,14.45
2019-04-01T13:12:27.333Z,15.58
2019-04-01T13:14:55.684Z,15.20
2019-04-01T13:17:24.198Z,15.60
2019-04-01T13:19:52.605Z,15.80
2019-04-01T13:22:21.027Z,15.65
2019-04-01T13:24:49.446Z,15.10
2019-04-01T13:27:17.863Z,15.55
2019-04-01T13:29:46.284Z,14.18
2019-04-01T13:32:14.712Z,13.28
2019-04-01T13:34:43.134Z,13.43
2019-04-01T13:37:11.561Z,13.22
2019-04-01T13:39:40.249Z,13.00
2019-04-01T13:42:08.670Z,13.43
2019-04-01T13:44:37.766Z,13.30
2019-04-01T13:47:06.414Z,13.20
2019-04-01T13:49:34.950Z,11.88
2019-04-01T13:52:03.924Z,11.85
2019-04-01T13:54:32.387Z,13.10
2019-04-01T13:57:00.806Z,13.20
2019-04-01T13:59:29.234Z,13.22
2019-04-01T14:01:57.667Z,13.78
2019-04-01T14:04:27.325Z,13.25
2019-04-01T14:06:55.999Z,14.10
2019-04-01T14:09:24.475Z,12.93
2019-04-01T14:11:52.891Z,13.18
2019-04-01T14:14:21.297Z,13.22
2019-04-01T14:16:49.722Z,12.78
2019-04-01T14:19:18.197Z,13.22
2019-04-01T14:21:46.640Z,13.28
2019-04-01T14:24:15.250Z,14.17
2019-04-01T14:26:44.473Z,14.35
2019-04-01T14:29:16.330Z,12.20
2019-04-01T14:31:43.008Z,13.60
2019-04-01T14:34:13.917Z,13.45
2019-04-01T14:36:41.665Z,14.23
2019-04-01T14:39:10.242Z,14.05
2019-04-01T14:41:38.674Z,13.75
2019-04-01T14:44:07.155Z,14.33
2019-04-01T14:46:35.583Z,13.55
2019-04-01T14:49:04.161Z,14.43
2019-04-01T14:51:32.587Z,15.03
2019-04-01T14:54:01.005Z,13.93
2019-04-01T14:56:29.410Z,14.33
2019-04-01T14:58:57.986Z,14.60
2019-04-01T15:01:26.420Z,14.87
2019-04-01T15:03:54.841Z,15.07
2019-04-01T15:06:23.309Z,15.20
2019-04-01T15:08:51.725Z,14.80
2019-04-01T15:11:20.138Z,15.63
2019-04-01T15:13:48.569Z,14.77
2019-04-01T15:16:17.032Z,14.87
2019-04-01T15:18:45.922Z,15.97
2019-04-01T15:21:14.475Z,15.63
2019-04-01T15:23:42.911Z,14.97
2019-04-01T15:26:11.330Z,14.47
2019-04-01T15:28:39.740Z,15.47
2019-04-01T15:31:08.164Z,16.67
2019-04-01T15:33:36.596Z,16.20
2019-04-01T15:36:27.024Z,14.27
2019-04-01T15:38:55.805Z,15.27
2019-04-01T15:41:26.765Z,15.60
2019-04-01T15:43:54.341Z,16.27
2019-04-01T15:46:22.778Z,15.70
2019-04-01T15:48:51.236Z,16.13
2019-04-01T15:51:19.673Z,14.70
2019-04-01T15:53:48.165Z,15.47
2019-04-01T15:56:17.586Z,15.93
2019-04-01T15:58:46.000Z,14.33
2019-04-01T16:01:14.417Z,13.17
2019-04-01T16:03:42.831Z,13.73
2019-04-01T16:06:11.271Z,14.20
2019-04-01T16:08:39.682Z,14.23
2019-04-01T16:11:08.156Z,14.50
2019-04-01T16:13:37.078Z,14.23
2019-04-01T16:16:07.050Z,15.35
2019-04-01T16:18:35.545Z,14.23
2019-04-01T16:21:04.029Z,14.40
2019-04-01T16:23:32.437Z,13.70
2019-04-01T16:26:00.854Z,16.20
2019-04-01T16:28:29.261Z,16.33
2019-04-01T16:30:57.669Z,14.10
2019-04-01T16:33:26.083Z,14.97
2019-04-01T16:35:54.490Z,20.60
2019-04-01T16:38:22.902Z,14.50
2019-04-01T16:40:52.495Z,13.83
2019-04-01T16:43:21.013Z,16.07
2019-04-01T16:45:49.505Z,14.47
2019-04-01T16:48:17.925Z,15.47
2019-04-01T16:50:46.409Z,16.13
2019-04-01T16:53:14.833Z,15.63
2019-04-01T16:55:43.311Z,16.13
2019-04-01T16:58:11.720Z,14.47
2019-04-01T17:00:40.140Z,14.47
2019-04-01T17:03:08.600Z,16.73
2019-04-01T17:05:37.012Z,15.43
2019-04-01T17:08:05.497Z,14.67
2019-04-01T17:10:33.905Z,14.30
2019-04-01T17:13:02.331Z,12.73
2019-04-01T17:15:31.065Z,13.97
2019-04-01T17:17:59.477Z,12.10
2019-04-01T17:20:27.884Z,13.37
2019-04-01T17:22:56.298Z,14.83
2019-04-01T17:25:26.156Z,14.77
2019-04-01T17:27:54.685Z,14.30
2019-04-01T17:30:23.229Z,13.60
2019-04-01T17:32:51.641Z,14.87
2019-04-01T17:35:20.049Z,15.73
2019-04-01T17:37:48.499Z,13.83
2019-04-01T17:40:17.333Z,15.47
2019-04-01T17:42:46.529Z,54.17
2019-04-01T17:45:24.390Z,168.00
2019-04-01T17:47:52.803Z,149.73
2019-04-01T17:50:21.208Z,47.63
2019-04-01T17:52:49.627Z,21.40
2019-04-01T17:55:18.041Z,17.57
2019-04-01T17:57:46.582Z,21.47
2019-04-01T18:00:18.418Z,20.67
2019-04-01T18:02:46.887Z,20.07
2019-04-01T18:05:16.206Z,20.17
2019-04-01T18:07:44.631Z,18.60
2019-04-01T18:10:13.604Z,19.67
2019-04-01T18:12:42.008Z,21.30
2019-04-01T18:15:10.602Z,19.83
2019-04-01T18:17:39.009Z,19.03
2019-04-01T18:20:08.352Z,36.70
2019-04-01T18:22:36.757Z,34.00
2019-04-01T18:25:07.333Z,26.27
2019-04-01T18:27:35.799Z,20.83
2019-04-01T18:30:06.966Z,20.30
2019-04-01T18:32:35.369Z,18.87
2019-04-01T18:35:05.780Z,18.23
2019-04-01T18:37:34.184Z,19.17
2019-04-01T18:40:02.933Z,19.57
2019-04-01T18:42:31.639Z,19.13
2019-04-01T18:45:00.035Z,20.53
2019-04-01T18:47:28.439Z,20.00
2019-04-01T18:49:56.861Z,19.50
2019-04-01T18:52:25.260Z,19.53
2019-04-01T18:54:53.679Z,21.60
2019-04-01T18:57:22.081Z,20.10
2019-04-01T18:59:50.488Z,19.67
2019-04-01T19:02:19.152Z,18.83
2019-04-01T19:04:47.548Z,17.83
2019-04-01T19:07:15.949Z,18.13
2019-04-01T19:09:44.374Z,17.50
2019-04-01T19:12:12.778Z,18.63
2019-04-01T19:14:41.194Z,17.43
2019-04-01T19:17:09.586Z,19.13
2019-04-01T19:19:40.158Z,21.73
2019-04-01T19:22:08.124Z,23.73
2019-04-01T19:24:36.530Z,31.43
2019-04-01T19:27:04.930Z,32.43
2019-04-01T19:29:33.332Z,32.43
2019-04-01T19:32:01.757Z,22.97
2019-04-01T19:34:30.162Z,19.70
2019-04-01T19:36:59.038Z,19.70
2019-04-01T19:39:30.253Z,19.97
2019-04-01T19:41:57.893Z,25.00
2019-04-01T19:44:26.309Z,23.23
2019-04-01T19:46:54.713Z,25.93
2019-04-01T19:49:23.123Z,22.50
2019-04-01T19:51:51.544Z,20.80
2019-04-01T19:54:30.627Z,19.30
2019-04-01T19:56:50.073Z,20.40
2019-04-01T19:59:18.484Z,21.00
2019-04-01T20:01:46.884Z,23.97
2019-04-01T20:04:15.292Z,27.03
2019-04-01T20:06:43.873Z,24.30
2019-04-01T20:09:12.328Z,22.17
2019-04-01T20:11:40.732Z,18.20
2019-04-01T20:14:10.172Z,19.63
2019-04-01T20:16:40.152Z,22.07
2019-04-01T20:19:09.582Z,20.77
2019-04-01T20:21:37.985Z,21.70
2019-04-01T20:24:07.075Z,22.30
2019-04-01T20:26:35.476Z,21.73
2019-04-01T20:29:04.449Z,21.33
2019-04-01T20:31:32.854Z,21.13
2019-04-01T20:34:04.209Z,21.80
2019-04-01T20:36:31.674Z,22.30
2019-04-01T20:39:00.073Z,22.80
2019-04-01T20:41:28.739Z,24.10
2019-04-01T20:43:57.150Z,25.30
2019-04-01T20:46:25.568Z,23.47
2019-04-01T20:48:53.969Z,23.70
2019-04-01T20:51:22.381Z,22.70
2019-04-01T20:53:51.330Z,22.40
2019-04-01T20:56:20.262Z,21.27
2019-04-01T20:58:49.507Z,22.13
2019-04-01T21:01:17.984Z,19.80
2019-04-01T21:03:46.390Z,20.63
2019-04-01T21:06:14.801Z,19.03
2019-04-01T21:08:43.200Z,20.33
2019-04-01T21:11:11.669Z,19.73
2019-04-01T21:13:40.089Z,19.90
2019-04-01T21:16:08.738Z,19.93
2019-04-01T21:18:37.137Z,19.20
2019-04-01T21:21:05.541Z,18.03
2019-04-01T21:23:33.945Z,20.03
2019-04-01T21:26:02.357Z,20.60
2019-04-01T21:28:30.770Z,19.63
2019-04-01T21:30:59.543Z,19.30
2019-04-01T21:33:28.018Z,17.97
2019-04-01T21:35:56.424Z,17.93
2019-04-01T21:38:24.849Z,17.53
2019-04-01T21:40:53.254Z,18.30
2019-04-01T21:43:21.666Z,17.57
2019-04-01T21:45:50.060Z,17.30
2019-04-01T21:48:18.481Z,18.10
2019-04-01T21:50:46.881Z,18.27
2019-04-01T21:53:15.290Z,16.63
2019-04-01T21:55:43.692Z,16.13
2019-04-01T21:58:12.106Z,16.60
2019-04-01T22:00:57.055Z,15.80
2019-04-01T22:03:25.659Z,17.00
2019-04-01T22:05:54.126Z,19.27
2019-04-01T22:08:22.543Z,19.50
2019-04-01T22:10:51.009Z,18.70
2019-04-01T22:13:19.421Z,18.40
2019-04-01T22:15:47.835Z,19.17
2019-04-01T22:18:16.241Z,19.13
2019-04-01T22:20:44.646Z,19.33
2019-04-01T22:23:13.069Z,19.23
2019-04-01T22:25:41.479Z,18.60
2019-04-01T22:28:09.876Z,20.23
2019-04-01T22:30:38.288Z,17.77
2019-04-01T22:33:06.700Z,17.57
2019-04-01T22:35:39.056Z,19.13
2019-04-01T22:38:06.344Z,18.13
2019-04-01T22:40:35.011Z,17.10
2019-04-01T22:43:03.541Z,16.73
2019-04-01T22:45:31.952Z,14.77
2019-04-01T22:48:00.349Z,15.47
2019-04-01T22:50:28.762Z,15.53
2019-04-01T22:52:57.163Z,16.00
2019-04-01T22:55:25.578Z,15.33
2019-04-01T22:57:53.980Z,15.40
2019-04-01T23:00:22.453Z,15.20
2019-04-01T23:02:50.846Z,14.67
2019-04-01T23:05:19.325Z,14.47
2019-04-01T23:07:47.730Z,14.07
2019-04-01T23:10:16.133Z,14.73
2019-04-01T23:12:44.538Z,15.10
2019-04-01T23:15:15.116Z,14.70
2019-04-01T23:17:43.473Z,14.17
2019-04-01T23:20:11.947Z,15.47
2019-04-01T23:22:40.350Z,16.13
2019-04-01T23:25:08.994Z,16.13
2019-04-01T23:27:37.388Z,17.20
2019-04-01T23:30:10.655Z,17.80
2019-04-01T23:32:41.617Z,17.27
2019-04-01T23:35:09.252Z,18.03
2019-04-01T23:37:38.448Z,17.33
2019-04-01T23:40:07.603Z,19.00
2019-04-01T23:42:37.940Z,18.47
2019-04-01T23:45:07.282Z,19.03
2019-04-01T23:47:35.694Z,18.77
2019-04-01T23:50:09.198Z,18.93
2019-04-01T23:52:38.070Z,19.40
2019-04-01T23:55:07.253Z,18.93
2019-04-01T23:57:36.054Z,19.47
